Time;durP1;ratioP1;P1;durP2;ratioP2;P2;SDS_P1;SDS_P2;PMS_P1;PMS_P2;Temp;Humidity;BMP_temperature;BMP_pressure;BME280_temperature;BME280_humidity;BME280_pressure;Samples;Min_cycle;Max_cycle;Signal;HPM_P1;HPM_P2
2023/01/20 00:01:24;;;;;;;0.65;0.60;;;-0.30;99.90;;;;;;5032122;28;20037;-63
2023/01/20 00:03:52;;;;;;;1.00;0.63;;;-0.30;99.90;;;;;;5032445;28;20158;-63
2023/01/20 00:06:17;;;;;;;0.70;0.60;;;-0.30;99.90;;;;;;5032064;28;20053;-62
2023/01/20 00:08:43;;;;;;;1.25;0.80;;;-0.20;99.90;;;;;;5032143;28;20038;-62
2023/01/20 00:11:11;;;;;;;3.08;0.93;;;-0.30;99.90;;;;;;5032379;28;20584;-62
2023/01/20 00:13:37;;;;;;;1.30;0.77;;;-0.30;99.90;;;;;;5032326;28;20136;-62
2023/01/20 00:16:05;;;;;;;0.70;0.60;;;-0.30;99.90;;;;;;5031987;28;20049;-62
2023/01/20 00:18:31;;;;;;;0.75;0.65;;;-0.30;99.90;;;;;;5032236;28;20048;-62
2023/01/20 00:21:04;;;;;;;1.25;0.63;;;-0.30;99.90;;;;;;5032326;28;20033;-62
2023/01/20 00:23:31;;;;;;;3.13;1.38;;;-0.30;99.90;;;;;;4997698;28;20408;-62
2023/01/20 00:25:57;;;;;;;0.70;0.68;;;-0.40;99.90;;;;;;5032187;28;20421;-62
2023/01/20 00:28:22;;;;;;;1.45;1.02;;;-0.40;99.90;;;;;;5031884;28;20052;-62
2023/01/20 00:30:48;;;;;;;1.55;1.00;;;-0.40;99.90;;;;;;5032076;28;20044;-62
2023/01/20 00:33:13;;;;;;;1.35;1.00;;;-0.40;99.90;;;;;;5032083;28;20045;-63
2023/01/20 00:35:39;;;;;;;1.15;0.93;;;-0.40;99.90;;;;;;5032080;28;20060;-62
2023/01/20 00:38:04;;;;;;;9.45;1.13;;;-0.40;99.90;;;;;;5032053;28;20530;-62
2023/01/20 00:40:30;;;;;;;1.58;1.30;;;-0.30;99.90;;;;;;5031993;28;20491;-63
2023/01/20 00:42:56;;;;;;;2.10;1.08;;;-0.30;99.90;;;;;;5031960;28;20124;-62
2023/01/20 00:45:21;;;;;;;1.65;1.00;;;-0.30;99.90;;;;;;5031950;28;20029;-62
2023/01/20 00:47:47;;;;;;;1.95;1.23;;;-0.30;99.90;;;;;;5031949;28;20461;-62
2023/01/20 00:50:12;;;;;;;2.53;1.08;;;-0.20;99.90;;;;;;5031720;28;20354;-62
2023/01/20 00:52:38;;;;;;;3.28;1.90;;;0.20;99.90;;;;;;5014324;28;20055;-62
2023/01/20 00:55:04;;;;;;;2.58;1.67;;;-0.10;99.90;;;;;;5031863;28;20500;-62
2023/01/20 00:57:29;;;;;;;2.45;1.35;;;0.00;99.90;;;;;;5031592;28;20053;-62
2023/01/20 00:59:55;;;;;;;1.98;1.42;;;0.00;99.90;;;;;;5031452;28;20038;-63
2023/01/20 01:02:20;;;;;;;2.90;1.67;;;0.10;99.90;;;;;;5031772;28;20128;-63
2023/01/20 01:04:50;;;;;;;3.60;1.98;;;0.10;99.90;;;;;;5031489;28;20057;-62
2023/01/20 01:07:16;;;;;;;3.42;1.88;;;0.20;99.90;;;;;;5013624;28;20136;-62
2023/01/20 01:09:42;;;;;;;2.80;1.55;;;0.20;99.90;;;;;;5032017;28;20061;-62
2023/01/20 01:12:08;;;;;;;2.40;1.60;;;-0.20;99.90;;;;;;5001344;28;20131;-62
2023/01/20 01:14:33;;;;;;;4.03;2.30;;;0.20;99.90;;;;;;5001580;28;20131;-62
2023/01/20 01:16:59;;;;;;;3.33;1.92;;;0.20;99.90;;;;;;5035608;28;20045;-62
2023/01/20 01:19:24;;;;;;;2.85;1.90;;;0.30;99.90;;;;;;5035368;28;20374;-62
2023/01/20 01:21:50;;;;;;;3.70;2.05;;;0.30;99.90;;;;;;5017586;28;20056;-62
2023/01/20 01:24:16;;;;;;;3.72;2.03;;;0.30;99.90;;;;;;5035433;28;20040;-62
2023/01/20 01:26:41;;;;;;;6.10;2.60;;;0.30;99.90;;;;;;5035381;28;20519;-62
2023/01/20 01:29:07;;;;;;;5.20;2.47;;;0.30;99.90;;;;;;5035376;28;20116;-63
2023/01/20 01:31:32;;;;;;;3.53;2.22;;;0.40;99.90;;;;;;5035273;28;20091;-62
2023/01/20 01:33:58;;;;;;;5.25;2.70;;;0.30;99.90;;;;;;5035299;28;20499;-62
2023/01/20 01:36:23;;;;;;;6.18;3.15;;;0.30;99.90;;;;;;5035256;28;20049;-62
2023/01/20 01:38:49;;;;;;;4.50;2.35;;;0.40;99.90;;;;;;5034895;28;20038;-62
2023/01/20 01:41:16;;;;;;;3.90;2.47;;;0.40;99.90;;;;;;5035200;28;20042;-62
2023/01/20 01:44:12;;;;;;;4.75;2.53;;;0.40;99.90;;;;;;5016901;28;20052;-62
2023/01/20 01:46:38;;;;;;;6.65;2.58;;;0.30;99.90;;;;;;5035023;28;20396;-62
2023/01/20 01:49:28;;;;;;;4.65;2.88;;;0.40;99.90;;;;;;5035042;28;20434;-62
2023/01/20 01:52:07;;;;;;;5.43;3.17;;;0.40;99.90;;;;;;5034607;28;20049;-62
2023/01/20 01:54:36;;;;;;;8.40;3.55;;;0.40;99.90;;;;;;5034861;28;20041;-62
2023/01/20 01:57:04;;;;;;;4.45;3.05;;;0.40;99.90;;;;;;5034880;28;20048;-62
2023/01/20 01:59:30;;;;;;;8.98;3.83;;;0.40;99.90;;;;;;5034781;28;20085;-62
2023/01/20 02:01:56;;;;;;;10.38;3.95;;;0.40;99.90;;;;;;5016975;28;20073;-62
2023/01/20 02:04:24;;;;;;;5.18;3.03;;;0.40;99.90;;;;;;5034397;28;20038;-62
2023/01/20 02:06:54;;;;;;;6.63;3.45;;;0.40;99.90;;;;;;5034528;28;20053;-62
2023/01/20 02:09:20;;;;;;;8.38;3.10;;;0.40;99.90;;;;;;5034574;28;20045;-63
2023/01/20 02:11:51;;;;;;;6.65;4.18;;;0.40;99.90;;;;;;5034671;28;20044;-62
2023/01/20 02:14:20;;;;;;;6.38;3.53;;;0.30;99.90;;;;;;5034549;28;20037;-62
2023/01/20 02:16:59;;;;;;;7.07;3.47;;;0.40;99.90;;;;;;5034462;28;20401;-62
2023/01/20 02:19:50;;;;;;;6.68;3.22;;;0.30;99.90;;;;;;5016469;28;20041;-62
2023/01/20 02:23:04;;;;;;;8.38;3.35;;;0.30;99.90;;;;;;5033953;28;20098;-62
2023/01/20 02:25:32;;;;;;;5.47;2.90;;;0.40;99.90;;;;;;5011286;28;20394;-62
2023/01/20 02:28:37;;;;;;;5.22;3.35;;;0.40;99.90;;;;;;5016560;28;20052;-62
2023/01/20 02:31:40;;;;;;;5.30;2.65;;;0.40;99.90;;;;;;5033482;28;20041;-62
2023/01/20 02:34:25;;;;;;;6.00;3.25;;;0.40;99.90;;;;;;5034237;28;20403;-62
2023/01/20 02:36:52;;;;;;;6.68;2.85;;;0.50;99.90;;;;;;5016513;28;20128;-62
2023/01/20 02:39:29;;;;;;;5.85;2.33;;;0.70;99.90;;;;;;5016512;28;20061;-62
2023/01/20 02:42:09;;;;;;;4.55;2.53;;;0.50;99.90;;;;;;5016104;28;20045;-62
2023/01/20 02:44:54;;;;;;;5.05;2.92;;;0.60;99.90;;;;;;5016238;28;20045;-62
2023/01/20 02:47:37;;;;;;;6.00;2.85;;;0.50;99.90;;;;;;5015881;28;20101;-63
2023/01/20 02:50:19;;;;;;;10.05;2.80;;;0.50;99.90;;;;;;5033830;28;20395;-62
2023/01/20 02:52:50;;;;;;;6.30;3.45;;;0.50;99.90;;;;;;5033751;28;20045;-63
2023/01/20 02:55:27;;;;;;;7.43;3.53;;;0.50;99.90;;;;;;5015698;28;20382;-63
2023/01/20 02:58:00;;;;;;;6.45;3.13;;;0.60;99.90;;;;;;5015579;28;20049;-62
2023/01/20 03:00:35;;;;;;;4.88;2.65;;;0.50;99.90;;;;;;5033679;28;20476;-62
2023/01/20 03:03:04;;;;;;;4.50;2.38;;;0.60;99.90;;;;;;5015493;28;20042;-62
2023/01/20 03:05:32;;;;;;;11.88;3.72;;;0.60;99.90;;;;;;5033044;28;20072;-63
2023/01/20 03:08:02;;;;;;;7.53;3.67;;;0.60;99.90;;;;;;5033401;28;20037;-62
2023/01/20 03:10:31;;;;;;;5.05;3.17;;;0.60;99.90;;;;;;5033546;28;20521;-62
2023/01/20 03:13:15;;;;;;;5.45;2.75;;;0.60;99.90;;;;;;5015682;28;20116;-62
2023/01/20 03:15:57;;;;;;;7.32;3.80;;;0.60;99.90;;;;;;5015320;28;20053;-62
2023/01/20 03:18:23;;;;;;;7.35;3.25;;;0.50;99.90;;;;;;5033075;28;20038;-63
2023/01/20 03:20:49;;;;;;;5.78;3.55;;;0.50;99.90;;;;;;5033246;28;20482;-62
2023/01/20 03:23:15;;;;;;;8.80;3.50;;;0.50;99.90;;;;;;5015169;28;20037;-62
2023/01/20 03:25:43;;;;;;;7.80;4.32;;;0.50;99.90;;;;;;5033076;28;20370;-62
2023/01/20 03:28:08;;;;;;;7.68;3.75;;;0.50;99.90;;;;;;5033082;28;20346;-63
2023/01/20 03:30:34;;;;;;;10.00;4.50;;;0.50;99.90;;;;;;5033036;28;20532;-62
2023/01/20 03:33:00;;;;;;;8.70;4.78;;;0.40;99.90;;;;;;5032195;28;20038;-62
2023/01/20 03:35:27;;;;;;;7.68;4.38;;;0.40;99.90;;;;;;5032911;28;20050;-62
2023/01/20 03:37:52;;;;;;;7.10;4.40;;;0.40;99.90;;;;;;5032875;28;20049;-62
2023/01/20 03:40:18;;;;;;;7.47;4.38;;;0.30;99.90;;;;;;5015174;28;20397;-63
2023/01/20 03:42:57;;;;;;;8.15;4.47;;;0.30;99.90;;;;;;5032739;28;20600;-62
2023/01/20 03:45:41;;;;;;;7.28;4.18;;;0.30;99.90;;;;;;5032771;28;20044;-62
2023/01/20 03:48:35;;;;;;;6.80;3.67;;;0.20;99.90;;;;;;5032583;28;20061;-62
2023/01/20 03:51:30;;;;;;;7.15;4.68;;;0.20;99.90;;;;;;5030501;28;20042;-62
2023/01/20 03:54:06;;;;;;;10.27;3.70;;;0.20;99.90;;;;;;5032435;28;20401;-64
2023/01/20 03:57:10;;;;;;;11.85;4.45;;;0.20;99.90;;;;;;5032667;28;20048;-62
2023/01/20 03:59:38;;;;;;;9.55;4.57;;;0.20;99.90;;;;;;4968552;28;20080;-62
2023/01/20 04:02:06;;;;;;;10.77;4.53;;;0.20;99.90;;;;;;5031988;28;20501;-62
2023/01/20 04:04:34;;;;;;;9.50;4.38;;;0.20;99.90;;;;;;5032447;28;20481;-62
2023/01/20 04:07:06;;;;;;;10.20;4.65;;;0.20;99.90;;;;;;5014450;28;20046;-62
2023/01/20 04:09:37;;;;;;;10.88;4.30;;;0.20;99.90;;;;;;5032369;28;20045;-63
2023/01/20 04:12:03;;;;;;;13.57;4.88;;;0.20;99.90;;;;;;5032477;28;20128;-62
2023/01/20 04:14:29;;;;;;;9.90;4.38;;;0.20;99.90;;;;;;5032086;28;20518;-64
2023/01/20 04:16:56;;;;;;;14.55;6.28;;;0.30;99.90;;;;;;5032264;28;20049;-62
2023/01/20 04:19:23;;;;;;;8.73;4.05;;;0.30;99.90;;;;;;5014362;28;20112;-62
2023/01/20 04:22:16;;;;;;;13.60;5.47;;;0.90;99.90;;;;;;5032539;28;20117;-62
2023/01/20 04:24:57;;;;;;;8.90;4.07;;;0.30;99.90;;;;;;5032506;28;20035;-62
2023/01/20 04:27:22;;;;;;;7.90;4.18;;;0.30;99.90;;;;;;5032347;28;20408;-62
2023/01/20 04:29:48;;;;;;;7.60;4.45;;;0.30;99.90;;;;;;5032140;28;20033;-62
2023/01/20 04:32:14;;;;;;;9.85;4.75;;;0.30;99.90;;;;;;5014146;28;20564;-62
2023/01/20 04:34:39;;;;;;;10.30;4.35;;;0.30;99.90;;;;;;5032088;28;20126;-63
2023/01/20 04:37:05;;;;;;;9.90;4.88;;;0.30;99.90;;;;;;5032102;28;20401;-62
2023/01/20 04:39:30;;;;;;;10.05;4.75;;;0.30;99.90;;;;;;5032000;28;20041;-62
2023/01/20 04:41:56;;;;;;;10.98;4.35;;;0.30;99.90;;;;;;5014337;28;20037;-63
2023/01/20 04:44:21;;;;;;;10.65;4.55;;;0.30;99.90;;;;;;5034524;28;20080;-62
2023/01/20 04:46:47;;;;;;;7.47;3.55;;;0.30;99.90;;;;;;5020859;28;20564;-63
2023/01/20 04:49:13;;;;;;;9.30;4.40;;;0.30;99.90;;;;;;5038326;28;20172;-62
2023/01/20 04:51:39;;;;;;;11.85;4.60;;;0.30;99.90;;;;;;5020408;28;20049;-62
2023/01/20 04:54:05;;;;;;;10.07;4.53;;;0.30;99.90;;;;;;5038525;28;20037;-62
2023/01/20 04:56:31;;;;;;;11.13;4.65;;;0.30;99.90;;;;;;5020440;28;20044;-62
2023/01/20 04:58:58;;;;;;;12.20;4.97;;;0.30;99.90;;;;;;5038524;28;20559;-62
2023/01/20 05:01:23;;;;;;;8.50;4.40;;;0.30;99.90;;;;;;5038178;28;20034;-62
2023/01/20 05:03:49;;;;;;;12.15;5.47;;;0.30;99.90;;;;;;5038046;28;20050;-62
2023/01/20 05:06:15;;;;;;;8.93;4.55;;;0.30;99.90;;;;;;5038011;28;20068;-62
2023/01/20 05:08:40;;;;;;;11.25;5.07;;;0.30;99.90;;;;;;5038437;28;20120;-62
2023/01/20 05:11:06;;;;;;;9.23;4.32;;;0.40;99.90;;;;;;5020325;28;20485;-62
2023/01/20 05:13:37;;;;;;;10.43;5.18;;;0.40;99.90;;;;;;5038348;28;20041;-62
2023/01/20 05:16:03;;;;;;;11.93;4.97;;;0.30;99.90;;;;;;5038369;28;20051;-62
2023/01/20 05:18:28;;;;;;;9.75;5.65;;;0.40;99.90;;;;;;5038069;28;20506;-62
2023/01/20 05:20:54;;;;;;;11.93;4.25;;;0.40;99.90;;;;;;5038265;28;20095;-62
2023/01/20 05:23:19;;;;;;;11.13;5.15;;;0.40;99.90;;;;;;5038083;28;20037;-62
2023/01/20 05:25:52;;;;;;;6.88;3.78;;;0.40;99.90;;;;;;5038238;28;20047;-62
2023/01/20 05:28:18;;;;;;;7.57;3.83;;;0.40;99.90;;;;;;5037944;28;20348;-64
2023/01/20 05:30:44;;;;;;;12.00;4.25;;;0.40;99.90;;;;;;5020248;28;20419;-62
2023/01/20 05:33:10;;;;;;;9.40;3.80;;;0.40;99.90;;;;;;5037853;28;20041;-62
2023/01/20 05:35:39;;;;;;;7.97;3.95;;;0.40;99.90;;;;;;5038156;28;20124;-62
2023/01/20 05:38:05;;;;;;;8.40;4.95;;;0.30;99.90;;;;;;5038119;28;20438;-63
2023/01/20 05:40:31;;;;;;;8.40;3.80;;;0.30;99.90;;;;;;5020180;28;20044;-62
2023/01/20 05:43:00;;;;;;;5.78;3.40;;;0.30;99.90;;;;;;5038027;28;20037;-62
2023/01/20 05:45:26;;;;;;;12.43;5.07;;;0.30;99.90;;;;;;5038027;28;20037;-62
2023/01/20 05:47:56;;;;;;;8.18;4.30;;;0.30;99.90;;;;;;5037956;28;20037;-62
2023/01/20 05:50:23;;;;;;;8.95;4.15;;;0.30;99.90;;;;;;5038080;28;20465;-62
2023/01/20 05:52:49;;;;;;;7.80;3.78;;;0.30;99.90;;;;;;5038191;28;20049;-62
2023/01/20 05:55:15;;;;;;;8.30;4.03;;;0.40;99.90;;;;;;5037050;28;20049;-62
2023/01/20 05:57:41;;;;;;;8.25;4.30;;;0.30;99.90;;;;;;5034424;28;20029;-63
2023/01/20 06:00:08;;;;;;;12.88;4.75;;;0.40;99.90;;;;;;5034946;28;20049;-64
2023/01/20 06:02:34;;;;;;;7.88;4.25;;;0.30;99.90;;;;;;5017028;28;20568;-64
2023/01/20 06:05:00;;;;;;;14.90;3.97;;;0.40;99.90;;;;;;5034686;28;20092;-63
2023/01/20 06:07:28;;;;;;;6.32;3.45;;;0.40;99.90;;;;;;5034304;28;20511;-61
2023/01/20 06:09:53;;;;;;;8.93;5.40;;;0.30;99.90;;;;;;5034593;28;20092;-60
2023/01/20 06:12:19;;;;;;;8.95;4.45;;;0.40;99.90;;;;;;5034550;28;20483;-61
2023/01/20 06:14:44;;;;;;;6.95;3.75;;;0.40;99.90;;;;;;5034544;28;20446;-61
2023/01/20 06:17:10;;;;;;;14.10;4.53;;;0.40;99.90;;;;;;5034637;28;20046;-61
2023/01/20 06:19:36;;;;;;;7.90;4.45;;;0.40;99.90;;;;;;5034479;28;20037;-62
2023/01/20 06:22:01;;;;;;;10.18;4.03;;;0.40;99.90;;;;;;5034342;28;20061;-62
2023/01/20 06:24:27;;;;;;;5.40;3.95;;;0.40;99.90;;;;;;5016231;28;20124;-62
2023/01/20 06:26:53;;;;;;;10.90;5.13;;;0.40;99.90;;;;;;5034052;28;20451;-62
2023/01/20 06:29:18;;;;;;;10.75;5.05;;;0.40;99.90;;;;;;5034275;28;20894;-62
2023/01/20 06:31:45;;;;;;;11.25;5.47;;;0.40;99.90;;;;;;5016249;28;20042;-62
2023/01/20 06:34:11;;;;;;;10.48;4.82;;;0.40;99.90;;;;;;5016186;28;20037;-62
2023/01/20 06:36:37;;;;;;;14.95;5.53;;;0.40;99.90;;;;;;5033904;28;20049;-62
2023/01/20 06:39:02;;;;;;;8.55;5.15;;;0.40;99.90;;;;;;5033869;28;20516;-61
2023/01/20 06:41:28;;;;;;;10.98;4.95;;;0.40;99.90;;;;;;5033727;28;20085;-63
2023/01/20 06:43:54;;;;;;;11.13;5.20;;;0.40;99.90;;;;;;5016238;28;20046;-62
2023/01/20 06:46:19;;;;;;;14.43;5.82;;;0.40;99.90;;;;;;5033985;28;20060;-62
2023/01/20 06:48:45;;;;;;;10.07;5.03;;;0.40;99.90;;;;;;5033827;28;20092;-62
2023/01/20 06:51:13;;;;;;;8.52;5.18;;;0.40;99.90;;;;;;5015883;28;20503;-62
2023/01/20 06:53:39;;;;;;;4.35;2.22;;;0.40;99.90;;;;;;5033340;28;20033;-63
2023/01/20 06:56:04;;;;;;;9.63;5.20;;;0.40;99.90;;;;;;5015488;28;20052;-63
2023/01/20 06:58:31;;;;;;;8.70;4.75;;;0.50;99.90;;;;;;5015748;28;20145;-62
2023/01/20 07:01:03;;;;;;;12.68;5.97;;;0.50;99.90;;;;;;5033304;28;20049;-63
2023/01/20 07:03:29;;;;;;;9.75;3.92;;;0.50;99.90;;;;;;5033544;28;20053;-62
2023/01/20 07:06:00;;;;;;;11.45;5.75;;;0.40;99.90;;;;;;5033059;28;20050;-62
2023/01/20 07:08:26;;;;;;;10.93;6.97;;;0.50;99.90;;;;;;5032409;28;20053;-63
2023/01/20 07:10:51;;;;;;;12.15;5.22;;;0.40;99.90;;;;;;5033677;28;20480;-62
2023/01/20 07:13:17;;;;;;;8.90;5.45;;;0.50;99.90;;;;;;5033490;28;20091;-62
2023/01/20 07:15:43;;;;;;;14.35;6.13;;;0.50;99.90;;;;;;5015338;28;20041;-62
2023/01/20 07:18:08;;;;;;;13.20;6.00;;;0.50;99.90;;;;;;5033398;28;20046;-62
2023/01/20 07:20:34;;;;;;;11.48;5.47;;;0.50;99.90;;;;;;5015281;28;20049;-63
2023/01/20 07:23:00;;;;;;;12.48;5.72;;;0.50;99.90;;;;;;5032968;28;20552;-63
2023/01/20 07:25:26;;;;;;;14.48;6.72;;;0.50;99.90;;;;;;5033006;28;20073;-62
2023/01/20 07:27:52;;;;;;;13.25;6.13;;;0.50;99.90;;;;;;5032835;28;20079;-62
2023/01/20 07:30:18;;;;;;;11.10;5.72;;;0.50;99.90;;;;;;5033157;28;20040;-63
2023/01/20 07:32:43;;;;;;;17.17;7.60;;;0.50;99.90;;;;;;5015344;28;20052;-63
2023/01/20 07:35:09;;;;;;;17.75;7.15;;;-1.00;99.90;;;;;;5033028;28;20049;-63
2023/01/20 07:37:34;;;;;;;13.13;6.13;;;0.50;99.90;;;;;;5033152;28;20591;-63
2023/01/20 07:40:00;;;;;;;15.13;7.07;;;0.50;99.90;;;;;;5033009;28;20488;-62
2023/01/20 07:42:26;;;;;;;13.73;6.28;;;0.60;99.90;;;;;;4998761;28;20041;-62
2023/01/20 07:44:51;;;;;;;14.70;7.07;;;0.60;99.90;;;;;;5015091;28;20073;-63
2023/01/20 07:47:17;;;;;;;15.50;7.03;;;0.50;99.90;;;;;;5032904;28;20037;-62
2023/01/20 07:49:42;;;;;;;13.98;6.78;;;0.60;99.90;;;;;;5032748;28;20477;-62
2023/01/20 07:52:08;;;;;;;10.07;5.97;;;0.60;99.90;;;;;;5032737;28;20049;-62
2023/01/20 07:54:34;;;;;;;15.48;7.03;;;0.60;99.90;;;;;;5032845;28;20052;-63
2023/01/20 07:56:59;;;;;;;22.75;6.80;;;0.60;99.90;;;;;;5032309;28;20085;-63
2023/01/20 07:59:25;;;;;;;14.25;6.80;;;0.60;99.90;;;;;;5032543;28;20065;-63
2023/01/20 08:01:51;;;;;;;12.18;6.55;;;0.60;99.90;;;;;;5032188;28;20052;-63
2023/01/20 08:04:17;;;;;;;17.73;7.78;;;0.60;99.90;;;;;;5014571;28;20033;-63
2023/01/20 08:06:42;;;;;;;14.27;7.32;;;0.70;99.90;;;;;;5032099;28;20056;-63
2023/01/20 08:09:11;;;;;;;13.07;5.70;;;0.70;99.90;;;;;;5014439;28;20136;-63
2023/01/20 08:11:37;;;;;;;17.13;6.68;;;0.70;99.90;;;;;;5032272;28;20447;-63
2023/01/20 08:14:03;;;;;;;13.93;6.38;;;0.70;99.90;;;;;;5032327;28;20064;-63
2023/01/20 08:16:28;;;;;;;12.90;7.15;;;0.70;99.90;;;;;;5014662;28;20587;-63
2023/01/20 08:18:54;;;;;;;18.30;7.45;;;0.70;99.90;;;;;;5031761;28;20037;-63
2023/01/20 08:21:29;;;;;;;13.00;7.63;;;0.70;99.90;;;;;;5032244;28;20468;-63
2023/01/20 08:23:56;;;;;;;13.13;6.78;;;0.70;99.90;;;;;;5031920;28;20107;-63
2023/01/20 08:26:26;;;;;;;13.05;6.55;;;0.80;99.90;;;;;;5031744;28;20034;-63
2023/01/20 08:28:52;;;;;;;18.23;8.07;;;0.80;99.90;;;;;;5031859;28;20042;-62
2023/01/20 08:31:20;;;;;;;17.00;8.80;;;0.80;99.90;;;;;;4997929;28;20041;-63
2023/01/20 08:33:47;;;;;;;15.68;7.80;;;0.80;99.90;;;;;;5032158;28;20439;-62
2023/01/20 08:36:14;;;;;;;20.65;8.55;;;0.80;99.90;;;;;;5031898;28;20041;-62
2023/01/20 08:38:41;;;;;;;15.90;6.80;;;0.80;99.90;;;;;;5031659;28;20061;-62
2023/01/20 08:41:13;;;;;;;13.43;7.13;;;0.90;99.90;;;;;;5031902;28;20042;-63
2023/01/20 08:43:38;;;;;;;12.98;6.22;;;0.90;99.90;;;;;;5031651;28;20496;-63
2023/01/20 08:46:10;;;;;;;16.27;7.55;;;0.90;99.90;;;;;;5031609;28;20121;-63
2023/01/20 08:48:39;;;;;;;17.73;8.85;;;0.90;99.90;;;;;;5031866;28;20029;-62
2023/01/20 08:51:14;;;;;;;18.52;8.05;;;1.00;99.90;;;;;;5014211;28;20092;-63
2023/01/20 08:53:41;;;;;;;17.35;8.38;;;1.00;99.90;;;;;;5031891;28;20041;-63
2023/01/20 08:56:07;;;;;;;17.35;7.90;;;1.00;99.90;;;;;;5031851;28;20440;-63
2023/01/20 08:58:33;;;;;;;16.27;6.25;;;1.00;99.90;;;;;;5031866;28;20116;-63
2023/01/20 09:00:59;;;;;;;10.00;5.65;;;0.90;99.90;;;;;;5031822;28;20136;-62
2023/01/20 09:03:25;;;;;;;17.40;8.23;;;1.00;99.90;;;;;;5031591;28;20073;-62
2023/01/20 09:05:51;;;;;;;16.73;8.40;;;1.00;99.90;;;;;;5031622;28;20543;-62
2023/01/20 09:08:18;;;;;;;13.43;6.68;;;1.00;99.90;;;;;;5031830;28;20478;-63
2023/01/20 09:10:44;;;;;;;17.15;7.82;;;1.00;99.90;;;;;;5031741;28;20497;-63
2023/01/20 09:13:10;;;;;;;13.98;7.40;;;1.00;99.90;;;;;;5013718;28;20088;-62
2023/01/20 09:15:35;;;;;;;14.63;6.72;;;1.00;99.90;;;;;;5031384;28;20041;-63
2023/01/20 09:18:01;;;;;;;16.83;8.23;;;1.00;99.90;;;;;;5013625;28;20041;-62
2023/01/20 09:20:29;;;;;;;11.85;6.88;;;1.00;99.90;;;;;;5013665;28;20103;-63
2023/01/20 09:22:54;;;;;;;10.38;5.20;;;1.00;99.90;;;;;;5031405;28;20046;-62
2023/01/20 09:25:20;;;;;;;15.70;6.43;;;1.00;99.90;;;;;;5031122;28;20400;-62
2023/01/20 09:27:45;;;;;;;13.77;7.07;;;1.00;99.90;;;;;;5013830;28;20112;-63
2023/01/20 09:30:11;;;;;;;14.68;7.97;;;1.00;99.90;;;;;;5013600;28;20048;-63
2023/01/20 09:32:37;;;;;;;20.75;8.23;;;1.00;99.90;;;;;;5016624;28;20052;-63
2023/01/20 09:35:03;;;;;;;16.17;8.38;;;1.00;99.90;;;;;;5035051;28;20087;-61
2023/01/20 09:46:19;;;;;;;14.85;7.30;;;1.10;99.90;;;;;;5004586;28;20057;-63
2023/01/20 09:55:01;;;;;;;17.35;7.80;;;1.10;99.90;;;;;;5034637;28;20049;-63
2023/01/20 09:57:32;;;;;;;20.48;8.40;;;1.10;99.90;;;;;;5035077;28;20531;-63
2023/01/20 10:00:04;;;;;;;17.50;7.20;;;1.10;99.90;;;;;;5034898;28;20049;-63
2023/01/20 10:02:34;;;;;;;25.35;10.13;;;1.10;99.90;;;;;;5034626;28;20045;-63
2023/01/20 10:05:09;;;;;;;19.08;8.82;;;1.20;99.90;;;;;;5035032;28;20037;-62
2023/01/20 10:07:49;;;;;;;19.02;6.68;;;1.20;99.90;;;;;;5034272;28;20463;-63
2023/01/20 10:10:38;;;;;;;19.90;7.45;;;1.20;99.90;;;;;;5034708;28;20038;-63
2023/01/20 10:13:14;;;;;;;19.15;7.72;;;1.20;99.90;;;;;;5000617;28;20164;-63
2023/01/20 10:15:53;;;;;;;17.52;8.52;;;1.20;99.90;;;;;;5016411;28;20114;-63
2023/01/20 10:18:21;;;;;;;18.58;7.55;;;1.10;99.90;;;;;;5016822;28;20076;-62
2023/01/20 10:20:55;;;;;;;14.60;7.53;;;1.30;99.90;;;;;;5034521;28;20330;-63
2023/01/20 10:23:33;;;;;;;22.15;8.57;;;1.20;99.90;;;;;;5034025;28;20052;-63
2023/01/20 10:26:19;;;;;;;16.83;8.40;;;1.20;99.90;;;;;;5034364;28;20085;-64
2023/01/20 10:29:08;;;;;;;23.17;9.40;;;1.20;99.90;;;;;;5023289;28;20096;-64
2023/01/20 10:31:48;;;;;;;21.55;8.95;;;1.30;99.90;;;;;;5016457;28;20041;-63
2023/01/20 10:34:18;;;;;;;15.68;7.32;;;1.30;99.90;;;;;;5034269;28;20082;-63
2023/01/20 10:36:49;;;;;;;21.27;7.90;;;1.40;99.90;;;;;;5016114;28;20050;-63
2023/01/20 10:39:27;;;;;;;;;;;1.40;99.90;;;;;;5034603;28;20041;-62
2023/01/20 10:42:04;;;;;;;21.13;7.32;;;1.30;99.90;;;;;;5033709;28;19946;-62
2023/01/20 10:44:33;;;;;;;17.48;8.55;;;1.40;99.90;;;;;;5033688;28;20029;-62
2023/01/20 10:46:59;;;;;;;23.58;8.60;;;1.40;99.90;;;;;;5033949;28;20049;-63
2023/01/20 10:49:33;;;;;;;15.23;7.93;;;1.40;99.90;;;;;;5033900;28;20047;-63
2023/01/20 10:52:13;;;;;;;12.00;7.88;;;1.40;99.90;;;;;;5033938;28;20057;-63
2023/01/20 10:54:55;;;;;;;22.35;8.63;;;1.40;99.90;;;;;;5033971;28;20057;-62
2023/01/20 10:57:21;;;;;;;18.90;7.60;;;1.40;99.90;;;;;;5033875;28;20041;-63
2023/01/20 10:59:52;;;;;;;17.88;8.35;;;1.40;99.90;;;;;;5033653;28;20448;-64
2023/01/20 11:02:24;;;;;;;18.13;7.63;;;1.40;99.90;;;;;;4999211;28;20060;-64
2023/01/20 11:04:58;;;;;;;26.65;7.97;;;1.40;99.90;;;;;;5033337;28;20088;-64
2023/01/20 11:07:26;;;;;;;17.40;8.40;;;1.40;99.90;;;;;;5033157;28;20053;-65
2023/01/20 11:09:51;;;;;;;16.90;9.38;;;1.50;99.90;;;;;;5033380;28;20099;-63
2023/01/20 11:12:24;;;;;;;14.80;7.40;;;1.40;99.90;;;;;;5033501;28;20042;-64
2023/01/20 11:14:53;;;;;;;17.33;7.18;;;1.40;99.90;;;;;;5015659;28;20045;-64
2023/01/20 11:17:19;;;;;;;18.02;6.63;;;1.50;99.90;;;;;;5033617;28;20508;-63
2023/01/20 11:19:51;;;;;;;17.90;8.02;;;1.50;99.90;;;;;;5032955;28;20045;-63
2023/01/20 11:22:31;;;;;;;17.23;8.18;;;1.50;99.90;;;;;;5033134;28;20481;-65
2023/01/20 11:24:59;;;;;;;23.90;9.63;;;1.50;99.90;;;;;;5032945;28;20033;-64
2023/01/20 11:27:42;;;;;;;21.42;8.15;;;1.50;99.90;;;;;;5033194;28;20041;-64
2023/01/20 11:30:31;;;;;;;20.42;8.70;;;1.60;99.90;;;;;;5032726;28;20045;-64
2023/01/20 11:33:15;;;;;;;22.00;8.40;;;1.60;99.90;;;;;;5033151;28;20404;-63
2023/01/20 11:36:02;;;;;;;25.08;9.15;;;1.60;99.90;;;;;;5032970;28;20041;-64
2023/01/20 11:38:31;;;;;;;19.88;7.45;;;1.50;99.90;;;;;;5032975;28;20095;-64
2023/01/20 11:40:57;;;;;;;19.67;8.00;;;1.60;99.90;;;;;;5033805;28;20081;-63
2023/01/20 11:43:36;;;;;;;19.65;7.80;;;1.60;99.90;;;;;;5015695;28;20115;-63
2023/01/20 11:46:15;;;;;;;21.90;8.15;;;1.60;99.90;;;;;;5033688;28;20050;-64
2023/01/20 11:48:41;;;;;;;26.35;7.90;;;1.60;99.90;;;;;;5033630;28;20496;-63
2023/01/20 11:51:25;;;;;;;14.98;6.57;;;1.60;99.90;;;;;;5033559;28;20041;-63
2023/01/20 11:54:07;;;;;;;20.25;7.43;;;1.50;99.90;;;;;;5032850;28;20092;-64
2023/01/20 11:56:39;;;;;;;19.83;8.20;;;1.50;99.90;;;;;;5033528;28;20119;-64
2023/01/20 11:59:22;;;;;;;21.88;7.88;;;1.50;99.90;;;;;;5015633;28;20045;-64
2023/01/20 12:02:00;;;;;;;15.40;6.97;;;1.60;99.90;;;;;;5033184;28;20041;-64
2023/01/20 12:04:33;;;;;;;15.43;7.20;;;1.60;99.90;;;;;;5033541;28;20040;-64
2023/01/20 12:07:02;;;;;;;20.45;8.63;;;1.60;99.90;;;;;;5033095;28;20058;-64
2023/01/20 12:09:37;;;;;;;22.17;7.18;;;1.70;99.90;;;;;;5033102;28;20044;-64
2023/01/20 12:12:02;;;;;;;18.45;7.10;;;1.60;99.90;;;;;;5033322;28;20029;-64
2023/01/20 12:14:44;;;;;;;17.00;7.22;;;1.60;99.90;;;;;;5015303;28;20060;-64
2023/01/20 12:17:31;;;;;;;18.67;7.55;;;1.60;99.90;;;;;;5032903;28;20041;-64
2023/01/20 12:20:05;;;;;;;23.45;8.30;;;1.60;99.90;;;;;;5032866;28;20038;-64
2023/01/20 12:22:34;;;;;;;13.77;7.30;;;1.60;99.90;;;;;;5033166;28;20041;-64
2023/01/20 12:25:24;;;;;;;15.88;7.57;;;1.60;99.90;;;;;;5015450;28;20072;-64
2023/01/20 12:27:54;;;;;;;14.98;8.00;;;1.60;99.90;;;;;;5014613;28;20065;-64
2023/01/20 12:30:28;;;;;;;17.13;6.53;;;1.60;99.90;;;;;;5033064;28;20100;-64
2023/01/20 12:32:54;;;;;;;13.05;6.32;;;1.60;99.90;;;;;;5032688;28;20049;-64
2023/01/20 12:35:26;;;;;;;18.60;7.03;;;1.60;99.90;;;;;;5032913;28;20511;-64
2023/01/20 12:37:56;;;;;;;;;;;1.60;99.90;;;;;;5033335;28;20083;-64
2023/01/20 12:40:39;;;;;;;17.58;6.90;;;1.60;99.90;;;;;;5032699;28;20008;-64
2023/01/20 12:43:20;;;;;;;16.27;8.30;;;1.60;99.90;;;;;;5015069;28;20378;-64
2023/01/20 12:45:58;;;;;;;21.02;8.23;;;1.60;99.90;;;;;;5032957;28;20382;-64
2023/01/20 12:48:52;;;;;;;16.85;6.97;;;1.60;99.90;;;;;;5032877;28;20037;-64
2023/01/20 12:51:47;;;;;;;20.05;7.93;;;1.60;99.90;;;;;;5032759;28;20118;-68
2023/01/20 12:54:53;;;;;;;18.05;7.20;;;1.60;99.90;;;;;;5014751;28;20052;-64
2023/01/20 12:57:37;;;;;;;13.30;6.35;;;1.60;99.90;;;;;;5019559;28;20415;-63
2023/01/20 13:00:22;;;;;;;15.70;6.38;;;1.60;99.90;;;;;;5032756;28;20037;-63
2023/01/20 13:03:34;;;;;;;17.27;6.93;;;1.60;99.90;;;;;;5032880;28;20448;-63
2023/01/20 13:06:42;;;;;;;14.98;6.63;;;1.60;99.90;;;;;;4988629;28;20440;-63
2023/01/20 13:09:26;;;;;;;13.45;6.30;;;1.60;99.90;;;;;;4959300;28;20125;-63
2023/01/20 13:12:19;;;;;;;18.67;6.53;;;1.60;99.90;;;;;;5031346;28;20080;-64
2023/01/20 13:14:49;;;;;;;14.27;6.85;;;1.60;99.90;;;;;;5036476;28;20037;-63
2023/01/20 13:17:26;;;;;;;16.95;7.60;;;1.60;99.90;;;;;;5036453;28;20061;-63
2023/01/20 13:19:57;;;;;;;17.48;7.13;;;1.70;99.90;;;;;;5036125;28;20041;-64
2023/01/20 13:22:24;;;;;;;15.90;6.57;;;1.70;99.90;;;;;;5018213;28;20052;-63
2023/01/20 13:24:56;;;;;;;21.17;6.45;;;1.70;99.90;;;;;;5036005;28;20042;-64